Time;durP1;ratioP1;P1;durP2;ratioP2;P2;SDS_P1;SDS_P2;PMS_P1;PMS_P2;Temp;Humidity;BMP_temperature;BMP_pressure;BME280_temperature;BME280_humidity;BME280_pressure;Samples;Min_cycle;Max_cycle;Signal;HPM_P1;HPM_P2
2020/12/24 00:00:19;;;;;;;1.67;1.35;;;12.30;99.90;;;;;;5131789;27;20200;-80
2020/12/24 00:02:45;;;;;;;2.58;1.50;;;12.30;99.90;;;;;;5117518;27;20193;-81
2020/12/24 00:05:12;;;;;;;2.17;1.70;;;12.20;99.90;;;;;;5131876;27;20703;-81
2020/12/24 00:07:38;;;;;;;1.95;1.50;;;12.30;99.90;;;;;;5135150;27;20191;-81
2020/12/24 00:10:05;;;;;;;3.25;1.55;;;12.20;99.90;;;;;;5119337;27;20235;-80
2020/12/24 00:12:32;;;;;;;1.88;1.02;;;12.30;99.90;;;;;;5114751;27;20201;-81
2020/12/24 00:14:59;;;;;;;4.80;1.20;;;12.30;99.90;;;;;;5134641;27;20666;-80
2020/12/24 00:17:25;;;;;;;2.70;1.40;;;12.20;99.90;;;;;;5114801;27;20204;-81
2020/12/24 00:19:51;;;;;;;3.85;1.30;;;12.20;99.90;;;;;;5118235;27;20213;-80
2020/12/24 00:22:18;;;;;;;1.52;1.00;;;12.20;99.90;;;;;;5124718;27;20254;-80
2020/12/24 00:24:44;;;;;;;3.00;1.50;;;12.20;99.90;;;;;;5115213;27;20197;-80
2020/12/24 00:27:10;;;;;;;4.63;1.35;;;12.20;99.90;;;;;;5114294;27;20220;-80
2020/12/24 00:29:36;;;;;;;2.03;1.42;;;12.20;99.90;;;;;;5125824;27;20810;-80
2020/12/24 00:32:04;;;;;;;2.03;1.20;;;12.20;99.90;;;;;;5134612;27;20650;-81
2020/12/24 00:34:30;;;;;;;1.90;1.30;;;12.20;99.90;;;;;;5123695;27;20196;-80
2020/12/24 00:36:56;;;;;;;2.58;1.35;;;12.10;99.90;;;;;;5126607;27;20210;-79
2020/12/24 00:39:23;;;;;;;2.22;1.30;;;12.10;99.90;;;;;;5113558;28;20723;-77
2020/12/24 00:41:51;;;;;;;2.80;1.30;;;12.10;99.90;;;;;;5114221;28;20192;-78
2020/12/24 00:44:17;;;;;;;4.30;1.30;;;12.10;99.90;;;;;;5114022;27;20193;-80
2020/12/24 00:46:44;;;;;;;1.92;1.38;;;12.10;99.90;;;;;;5128503;27;20205;-79
2020/12/24 00:49:11;;;;;;;6.95;1.45;;;12.10;99.90;;;;;;5113757;28;20196;-80
2020/12/24 00:51:37;;;;;;;1.77;1.38;;;12.10;99.90;;;;;;5118594;27;20726;-80
2020/12/24 00:54:03;;;;;;;2.95;1.30;;;12.10;99.90;;;;;;5112577;28;20193;-80
2020/12/24 00:56:30;;;;;;;1.42;1.00;;;12.10;99.90;;;;;;5121144;27;20202;-76
2020/12/24 00:58:56;;;;;;;3.15;1.42;;;12.00;99.90;;;;;;5126619;27;20196;-80
2020/12/24 01:01:22;;;;;;;5.35;1.17;;;12.00;99.90;;;;;;5114263;28;20201;-80
2020/12/24 01:03:48;;;;;;;3.17;1.10;;;12.00;99.90;;;;;;5115652;27;20185;-81
2020/12/24 01:06:15;;;;;;;3.05;1.50;;;12.00;99.90;;;;;;5114542;27;20605;-80
2020/12/24 01:08:41;;;;;;;5.43;1.55;;;12.00;99.90;;;;;;5114381;28;20197;-81
2020/12/24 01:11:08;;;;;;;3.75;1.55;;;12.00;99.90;;;;;;5114386;28;20203;-82
2020/12/24 01:13:34;;;;;;;2.65;1.40;;;12.00;99.90;;;;;;5115261;27;20312;-82
2020/12/24 01:16:00;;;;;;;3.25;1.20;;;12.00;99.90;;;;;;5113273;27;20200;-81
2020/12/24 01:18:26;;;;;;;3.50;1.48;;;12.00;99.90;;;;;;5113635;28;20193;-81
2020/12/24 01:20:53;;;;;;;4.80;1.75;;;12.00;99.90;;;;;;5113680;27;20261;-81
2020/12/24 01:23:20;;;;;;;8.70;1.75;;;11.90;99.90;;;;;;5125148;27;20189;-78
2020/12/24 01:25:46;;;;;;;4.57;1.58;;;11.90;99.90;;;;;;5125384;27;20222;-78
2020/12/24 01:28:13;;;;;;;2.97;1.55;;;11.90;99.90;;;;;;5118226;27;20197;-78
2020/12/24 01:30:39;;;;;;;5.22;1.65;;;11.90;99.90;;;;;;5111343;27;20203;-78
2020/12/24 01:33:05;;;;;;;9.52;2.88;;;12.00;99.90;;;;;;5124094;27;20204;-78
2020/12/24 01:35:31;;;;;;;5.80;2.05;;;11.90;99.90;;;;;;5133886;27;20203;-78
2020/12/24 01:37:58;;;;;;;4.28;1.83;;;11.90;99.90;;;;;;5126265;27;20196;-79
2020/12/24 01:40:25;;;;;;;2.45;1.27;;;12.00;99.90;;;;;;5123563;27;20227;-78
2020/12/24 01:42:51;;;;;;;2.95;1.23;;;11.90;99.90;;;;;;5115368;27;20205;-78
2020/12/24 01:45:17;;;;;;;2.42;1.02;;;11.90;99.90;;;;;;5113421;28;20192;-78
2020/12/24 01:47:44;;;;;;;2.33;1.30;;;11.90;99.90;;;;;;5119478;27;20196;-78
2020/12/24 01:50:10;;;;;;;2.70;1.40;;;11.90;99.90;;;;;;5128416;27;20196;-79
2020/12/24 01:52:37;;;;;;;3.60;1.45;;;11.80;99.90;;;;;;5124528;27;20193;-78
2020/12/24 01:55:05;;;;;;;3.67;1.40;;;11.90;99.90;;;;;;5113458;27;20189;-78
2020/12/24 01:57:33;;;;;;;3.22;1.10;;;11.80;99.90;;;;;;5117152;27;20199;-78
2020/12/24 01:59:59;;;;;;;4.65;1.80;;;11.90;99.90;;;;;;5133068;27;20193;-78
2020/12/24 02:02:26;;;;;;;4.60;2.55;;;11.90;99.90;;;;;;5123593;27;20200;-78
2020/12/24 02:04:52;;;;;;;4.53;1.40;;;11.90;99.90;;;;;;5112778;28;20199;-79
2020/12/24 02:07:19;;;;;;;3.30;1.20;;;11.90;99.90;;;;;;5112378;28;20285;-79
2020/12/24 02:09:46;;;;;;;2.78;1.13;;;11.80;99.90;;;;;;5112987;28;20200;-78
2020/12/24 02:12:13;;;;;;;2.15;1.20;;;11.80;99.90;;;;;;5114266;27;20200;-79
2020/12/24 02:14:41;;;;;;;3.35;1.50;;;11.80;99.90;;;;;;5130169;27;20200;-79
2020/12/24 02:17:07;;;;;;;4.35;1.67;;;11.80;99.90;;;;;;5133031;27;20199;-79
2020/12/24 02:19:34;;;;;;;3.90;1.55;;;11.80;99.90;;;;;;5120348;27;20279;-80
2020/12/24 02:22:02;;;;;;;5.13;1.48;;;11.80;99.90;;;;;;5112843;28;20700;-78
2020/12/24 02:24:29;;;;;;;4.15;1.42;;;11.80;99.90;;;;;;5117981;27;20185;-79
2020/12/24 02:26:55;;;;;;;3.10;1.45;;;11.70;99.90;;;;;;5112847;28;20223;-78
2020/12/24 02:29:22;;;;;;;5.35;2.08;;;11.80;99.90;;;;;;5113778;28;20203;-80
2020/12/24 02:31:49;;;;;;;2.03;1.00;;;11.70;99.90;;;;;;5112596;27;20524;-77
2020/12/24 02:34:15;;;;;;;8.00;1.50;;;11.70;99.90;;;;;;5112907;28;20201;-78
2020/12/24 02:36:42;;;;;;;3.85;1.40;;;11.60;99.90;;;;;;5112606;28;20590;-77
2020/12/24 02:39:09;;;;;;;3.42;1.38;;;11.70;99.90;;;;;;5118328;27;20214;-78
2020/12/24 02:41:35;;;;;;;4.80;1.30;;;11.70;99.90;;;;;;5122553;27;20740;-79
2020/12/24 02:44:02;;;;;;;5.20;1.75;;;11.60;99.90;;;;;;5112249;27;20207;-80
2020/12/24 02:46:28;;;;;;;7.70;1.20;;;11.60;99.90;;;;;;5112260;28;21037;-80
2020/12/24 02:48:54;;;;;;;1.88;1.13;;;11.60;99.90;;;;;;5112415;28;20693;-80
2020/12/24 02:51:20;;;;;;;4.45;1.23;;;11.60;99.90;;;;;;5112109;28;20632;-80
2020/12/24 02:53:47;;;;;;;3.28;1.67;;;11.60;99.90;;;;;;5114921;28;20188;-80
2020/12/24 02:56:14;;;;;;;2.25;2.03;;;11.60;99.90;;;;;;5114198;27;20196;-80
2020/12/24 02:58:40;;;;;;;8.07;1.48;;;11.60;99.90;;;;;;5119718;27;20200;-80
2020/12/24 03:01:06;;;;;;;4.63;1.55;;;11.60;99.90;;;;;;5133106;27;20196;-80
2020/12/24 03:03:32;;;;;;;2.30;1.20;;;11.50;99.90;;;;;;5131851;27;20196;-81
2020/12/24 03:05:59;;;;;;;4.40;1.48;;;11.60;99.90;;;;;;5112438;28;20219;-80
2020/12/24 03:08:25;;;;;;;3.67;1.98;;;11.60;99.90;;;;;;5112584;28;20206;-81
2020/12/24 03:10:51;;;;;;;7.85;1.75;;;11.60;99.90;;;;;;5113511;28;20196;-80
2020/12/24 03:13:18;;;;;;;6.22;1.70;;;11.60;99.90;;;;;;5111845;28;20208;-81
2020/12/24 03:15:44;;;;;;;4.70;1.25;;;11.50;99.90;;;;;;5126739;28;20719;-80
2020/12/24 03:18:11;;;;;;;3.75;1.23;;;11.50;99.90;;;;;;5135428;27;20659;-81
2020/12/24 03:20:37;;;;;;;5.38;1.80;;;11.50;99.90;;;;;;5135471;27;20517;-81
2020/12/24 03:23:03;;;;;;;4.05;2.13;;;11.50;99.90;;;;;;5122215;27;20548;-81
2020/12/24 03:25:29;;;;;;;2.90;1.70;;;11.50;99.90;;;;;;5116335;28;20192;-81
2020/12/24 03:27:56;;;;;;;2.85;1.30;;;11.50;99.90;;;;;;5116031;28;20207;-79
2020/12/24 03:30:23;;;;;;;4.60;1.55;;;11.50;99.90;;;;;;5116261;28;20211;-80
2020/12/24 03:32:49;;;;;;;4.63;1.42;;;11.50;99.90;;;;;;5116121;27;20188;-80
2020/12/24 03:35:15;;;;;;;6.43;1.60;;;11.50;99.90;;;;;;5116082;28;20293;-80
2020/12/24 03:37:41;;;;;;;4.72;1.60;;;11.40;99.90;;;;;;5116152;28;20192;-80
2020/12/24 03:40:08;;;;;;;2.00;1.30;;;11.40;99.90;;;;;;5133528;27;20244;-80
2020/12/24 03:42:34;;;;;;;4.80;1.73;;;11.50;99.90;;;;;;5124341;27;20200;-80
2020/12/24 03:45:01;;;;;;;6.22;1.67;;;11.40;99.90;;;;;;5115407;28;20201;-80
2020/12/24 03:47:28;;;;;;;3.53;1.30;;;11.40;99.90;;;;;;5115239;27;20212;-79
2020/12/24 03:49:54;;;;;;;6.78;1.55;;;11.40;99.90;;;;;;5115453;27;20185;-82
2020/12/24 03:52:20;;;;;;;3.63;1.92;;;11.40;99.90;;;;;;5115313;28;20197;-84
2020/12/24 03:54:46;;;;;;;9.18;1.85;;;11.50;99.90;;;;;;5115876;28;20189;-83
2020/12/24 03:57:13;;;;;;;3.50;1.30;;;11.40;99.90;;;;;;5125516;27;20192;-83
2020/12/24 03:59:39;;;;;;;7.70;1.80;;;11.40;99.90;;;;;;5123117;27;20210;-83
2020/12/24 04:02:05;;;;;;;5.03;2.80;;;11.40;99.90;;;;;;5116085;28;20207;-83
2020/12/24 04:04:32;;;;;;;2.78;1.25;;;11.40;99.90;;;;;;5115801;27;20659;-83
2020/12/24 04:06:58;;;;;;;3.90;1.40;;;11.40;99.90;;;;;;5119958;27;20238;-83
2020/12/24 04:09:25;;;;;;;6.88;1.85;;;11.40;99.90;;;;;;5136344;27;20200;-83
2020/12/24 04:11:51;;;;;;;4.65;1.77;;;11.30;99.90;;;;;;5135198;27;20196;-83
2020/12/24 04:14:17;;;;;;;5.00;1.38;;;11.40;99.90;;;;;;5127961;27;20196;-83
2020/12/24 04:16:43;;;;;;;5.97;1.48;;;11.40;99.90;;;;;;5136443;27;20192;-83
2020/12/24 04:19:09;;;;;;;5.68;1.30;;;11.40;99.90;;;;;;5123445;27;20223;-83
2020/12/24 04:21:37;;;;;;;9.68;1.52;;;11.40;99.90;;;;;;5115798;28;20258;-83
2020/12/24 04:24:03;;;;;;;6.82;1.55;;;11.40;99.90;;;;;;5119590;27;20200;-83
2020/12/24 04:26:29;;;;;;;3.33;1.90;;;11.40;99.90;;;;;;5118866;27;20219;-83
2020/12/24 04:28:55;;;;;;;5.90;1.35;;;11.40;99.90;;;;;;5114445;28;20208;-83
2020/12/24 04:31:21;;;;;;;4.28;1.05;;;11.40;99.90;;;;;;5115417;28;20552;-83
2020/12/24 04:33:48;;;;;;;3.85;1.45;;;11.40;99.90;;;;;;5115174;27;20204;-82
2020/12/24 04:36:14;;;;;;;7.20;1.77;;;11.30;99.90;;;;;;5114951;27;20197;-82
2020/12/24 04:38:42;;;;;;;4.53;1.50;;;11.30;99.90;;;;;;5115209;27;20193;-81
2020/12/24 04:41:08;;;;;;;2.53;1.27;;;11.30;99.90;;;;;;5134336;27;20231;-82
2020/12/24 04:43:36;;;;;;;6.88;1.65;;;11.30;99.90;;;;;;5125418;27;20636;-81
2020/12/24 04:46:03;;;;;;;4.10;1.58;;;11.30;99.90;;;;;;5121137;27;20675;-78
2020/12/24 04:48:31;;;;;;;5.28;1.80;;;11.30;99.90;;;;;;5133655;27;20194;-78
2020/12/24 04:50:58;;;;;;;7.75;1.70;;;11.30;99.90;;;;;;5135107;27;20200;-80
2020/12/24 04:53:26;;;;;;;2.58;1.42;;;11.20;99.90;;;;;;5134955;27;20206;-80
2020/12/24 04:55:55;;;;;;;2.90;1.35;;;11.30;99.90;;;;;;5115686;27;20204;-79
2020/12/24 04:58:23;;;;;;;5.90;1.85;;;11.30;99.90;;;;;;5121146;27;20207;-83
2020/12/24 05:00:51;;;;;;;2.20;1.35;;;11.30;99.90;;;;;;5126121;27;20192;-83
2020/12/24 05:03:17;;;;;;;1.85;1.20;;;11.20;99.90;;;;;;5134011;27;20196;-83
2020/12/24 05:05:44;;;;;;;3.90;1.35;;;11.20;99.90;;;;;;5117847;27;20188;-83
2020/12/24 05:08:10;;;;;;;4.85;1.48;;;11.20;99.90;;;;;;5125772;27;20196;-80
2020/12/24 05:10:38;;;;;;;4.05;1.10;;;11.20;99.90;;;;;;5134987;27;20210;-80
2020/12/24 05:13:16;;;;;;;4.32;1.55;;;11.20;99.90;;;;;;5134309;27;20192;-80
2020/12/24 05:15:43;;;;;;;8.25;1.65;;;11.20;99.90;;;;;;5113868;28;20251;-81
2020/12/24 05:18:18;;;;;;;3.58;1.42;;;11.20;99.90;;;;;;5113329;28;20203;-80
2020/12/24 05:20:44;;;;;;;2.78;1.40;;;11.10;99.90;;;;;;5114227;28;20192;-80
2020/12/24 05:23:12;;;;;;;4.53;1.30;;;11.20;99.90;;;;;;5113408;28;20208;-80
2020/12/24 05:25:38;;;;;;;3.03;1.30;;;11.10;99.90;;;;;;5113505;28;20189;-81
2020/12/24 05:28:05;;;;;;;2.22;1.20;;;11.10;99.90;;;;;;5113560;28;20212;-82
2020/12/24 05:30:33;;;;;;;6.10;1.73;;;11.20;99.90;;;;;;5119717;27;20188;-82
2020/12/24 05:32:59;;;;;;;5.28;2.20;;;11.20;99.90;;;;;;5134501;27;20203;-81
2020/12/24 05:35:27;;;;;;;4.78;1.23;;;11.20;99.90;;;;;;5134603;27;20265;-81
2020/12/24 05:37:54;;;;;;;3.13;1.33;;;11.20;99.90;;;;;;5134296;27;20194;-82
2020/12/24 05:40:23;;;;;;;5.75;1.10;;;11.20;99.90;;;;;;5116411;27;20560;-82
2020/12/24 05:42:50;;;;;;;7.75;2.13;;;11.10;99.90;;;;;;5128300;27;20188;-82
2020/12/24 05:45:17;;;;;;;5.85;1.40;;;11.20;99.90;;;;;;5122530;27;20185;-83
2020/12/24 05:47:44;;;;;;;5.35;1.38;;;11.10;99.90;;;;;;5112774;27;20205;-81
2020/12/24 05:50:24;;;;;;;3.55;1.67;;;11.10;99.90;;;;;;5128517;27;20193;-81
2020/12/24 05:53:07;;;;;;;2.20;1.20;;;11.10;99.90;;;;;;5123675;27;20196;-80
2020/12/24 05:55:34;;;;;;;6.13;1.55;;;11.10;99.90;;;;;;5127106;27;20211;-81
2020/12/24 05:58:00;;;;;;;4.07;1.50;;;11.10;99.90;;;;;;5119743;27;20192;-81
2020/12/24 06:00:32;;;;;;;3.45;1.50;;;11.10;99.90;;;;;;5134080;27;20204;-79
2020/12/24 06:03:10;;;;;;;2.45;1.20;;;11.10;99.90;;;;;;5132916;27;20199;-79
2020/12/24 06:05:57;;;;;;;1.73;1.08;;;11.10;99.90;;;;;;5126105;27;20215;-77
2020/12/24 06:08:25;;;;;;;3.80;1.67;;;11.10;99.90;;;;;;5119869;27;20185;-80
2020/12/24 06:11:01;;;;;;;4.47;1.40;;;11.10;99.90;;;;;;5133663;27;20717;-81
2020/12/24 06:13:38;;;;;;;2.47;1.52;;;11.10;99.90;;;;;;5132217;27;20619;-80
2020/12/24 06:16:05;;;;;;;5.10;1.83;;;11.10;99.90;;;;;;5121379;27;20180;-81
2020/12/24 06:18:34;;;;;;;3.63;1.52;;;11.10;99.90;;;;;;5123756;27;20181;-81
2020/12/24 06:21:01;;;;;;;3.00;1.50;;;11.10;99.90;;;;;;5114105;27;20272;-81
2020/12/24 06:23:31;;;;;;;2.50;1.30;;;11.10;99.90;;;;;;5123314;27;20205;-82
2020/12/24 06:26:03;;;;;;;8.40;1.90;;;11.10;99.90;;;;;;5112779;28;20200;-82
2020/12/24 06:28:33;;;;;;;8.65;1.58;;;11.10;99.90;;;;;;5113444;28;20182;-82
2020/12/24 06:31:01;;;;;;;3.92;1.50;;;11.10;99.90;;;;;;5113058;28;20205;-81
2020/12/24 06:33:29;;;;;;;3.10;1.15;;;11.10;99.90;;;;;;5112970;28;20686;-82
2020/12/24 06:35:56;;;;;;;3.95;1.40;;;11.10;99.90;;;;;;5121410;27;20196;-82
2020/12/24 06:38:46;;;;;;;5.50;1.35;;;11.10;99.90;;;;;;5133211;27;20196;-80
2020/12/24 06:41:23;;;;;;;3.90;1.17;;;11.10;99.90;;;;;;5132833;27;20838;-79
2020/12/24 06:43:50;;;;;;;3.65;1.95;;;11.10;99.90;;;;;;5112383;28;20210;-80
2020/12/24 06:46:16;;;;;;;3.00;1.35;;;11.00;99.90;;;;;;5113278;27;20208;-80
2020/12/24 06:48:59;;;;;;;2.05;1.10;;;11.10;99.90;;;;;;5112821;28;20195;-80
2020/12/24 06:51:26;;;;;;;4.32;1.30;;;11.00;99.90;;;;;;5111916;28;20200;-81
2020/12/24 06:53:52;;;;;;;3.17;1.30;;;11.00;99.90;;;;;;5115688;27;20680;-79
2020/12/24 06:56:23;;;;;;;3.90;1.13;;;11.00;99.90;;;;;;5113954;28;20188;-79
2020/12/24 06:58:58;;;;;;;5.05;1.77;;;11.00;99.90;;;;;;5133032;27;20610;-79
2020/12/24 07:01:26;;;;;;;7.18;1.20;;;11.00;99.90;;;;;;5122299;27;20208;-79
2020/12/24 07:03:54;;;;;;;4.40;1.40;;;11.00;99.90;;;;;;5121840;28;20252;-79
2020/12/24 07:06:54;;;;;;;4.57;2.40;;;11.10;99.90;;;;;;5130936;27;20265;-79
2020/12/24 07:09:43;;;;;;;3.90;1.40;;;11.00;99.90;;;;;;5064831;28;20228;-83
2020/12/24 07:12:09;;;;;;;3.15;1.65;;;11.00;99.90;;;;;;5060356;28;20201;-85
2020/12/24 07:14:37;;;;;;;3.75;1.45;;;11.00;99.90;;;;;;5088716;28;20199;-86
2020/12/24 07:17:09;;;;;;;1.88;1.48;;;10.90;99.90;;;;;;5113358;28;20215;-84
2020/12/24 07:19:37;;;;;;;2.47;1.30;;;10.90;99.90;;;;;;5112081;28;20207;-80
2020/12/24 07:22:10;;;;;;;3.15;1.20;;;10.90;99.90;;;;;;5115814;28;20567;-82
2020/12/24 07:24:37;;;;;;;3.20;1.38;;;11.00;99.90;;;;;;5131018;27;20261;-80
2020/12/24 07:27:05;;;;;;;3.13;1.40;;;11.00;99.90;;;;;;5112330;28;20277;-82
2020/12/24 07:29:32;;;;;;;3.05;1.10;;;11.10;99.90;;;;;;5111867;28;20211;-82
2020/12/24 07:32:01;;;;;;;2.55;1.25;;;11.10;99.90;;;;;;5124260;28;20204;-80
2020/12/24 07:34:29;;;;;;;2.08;0.90;;;11.10;99.90;;;;;;5123160;27;20196;-80
2020/12/24 07:36:55;;;;;;;1.30;1.10;;;11.20;99.90;;;;;;5131546;27;20643;-79
2020/12/24 07:39:23;;;;;;;1.52;0.90;;;11.10;99.90;;;;;;5129117;27;20233;-82
2020/12/24 07:41:50;;;;;;;3.63;1.20;;;11.20;99.90;;;;;;5112163;28;20700;-83
2020/12/24 07:44:18;;;;;;;2.95;1.02;;;11.10;99.90;;;;;;5113388;28;20196;-83
2020/12/24 07:46:45;;;;;;;2.17;1.00;;;11.00;99.90;;;;;;5112392;28;20233;-83
2020/12/24 07:49:11;;;;;;;4.22;1.00;;;11.00;99.90;;;;;;5113754;28;20549;-83
2020/12/24 07:51:37;;;;;;;4.28;1.00;;;11.00;99.90;;;;;;5125732;27;20192;-83
2020/12/24 07:54:08;;;;;;;1.90;0.80;;;11.00;99.90;;;;;;5131753;27;20543;-83
2020/12/24 07:56:36;;;;;;;1.95;0.90;;;11.00;99.90;;;;;;5122583;28;20200;-82
2020/12/24 07:59:03;;;;;;;1.45;0.90;;;11.00;99.90;;;;;;5113404;27;20536;-80
2020/12/24 08:01:30;;;;;;;1.10;0.90;;;11.00;99.90;;;;;;5119146;28;20193;-82
2020/12/24 08:03:58;;;;;;;1.48;0.90;;;11.00;99.90;;;;;;5120122;27;20196;-82
2020/12/24 08:06:24;;;;;;;1.10;0.98;;;11.00;99.90;;;;;;5115772;28;20270;-82
2020/12/24 08:08:51;;;;;;;1.45;0.80;;;10.90;99.90;;;;;;5115897;27;20257;-83
2020/12/24 08:11:17;;;;;;;0.90;0.73;;;10.90;99.90;;;;;;5115119;27;20201;-82
2020/12/24 08:13:44;;;;;;;1.50;0.88;;;10.90;99.90;;;;;;5121575;27;20920;-82
2020/12/24 08:16:12;;;;;;;1.33;0.75;;;10.90;99.90;;;;;;5131631;27;20265;-83
2020/12/24 08:18:44;;;;;;;1.10;1.00;;;10.90;99.90;;;;;;5136134;27;20215;-83
2020/12/24 08:21:19;;;;;;;1.05;0.95;;;10.90;99.90;;;;;;5130579;27;20206;-82
2020/12/24 08:23:49;;;;;;;1.92;0.80;;;10.90;99.90;;;;;;5115727;28;20273;-82
2020/12/24 08:26:17;;;;;;;1.00;0.80;;;10.90;99.90;;;;;;5126622;27;20585;-81
2020/12/24 08:28:51;;;;;;;1.10;0.80;;;10.90;99.90;;;;;;5135825;27;20671;-82
2020/12/24 08:31:19;;;;;;;1.13;0.70;;;10.90;99.90;;;;;;5123312;27;20528;-84
2020/12/24 08:33:50;;;;;;;1.35;0.73;;;10.80;99.90;;;;;;5116070;27;20193;-84
2020/12/24 08:36:18;;;;;;;1.48;1.10;;;10.80;99.90;;;;;;5132706;27;20185;-85
2020/12/24 08:38:45;;;;;;;0.90;0.70;;;10.80;99.90;;;;;;5129203;27;20191;-82
2020/12/24 08:41:22;;;;;;;1.10;0.90;;;10.80;99.90;;;;;;5135374;27;20231;-84
2020/12/24 08:43:53;;;;;;;1.20;1.00;;;10.80;99.90;;;;;;5135716;27;20200;-81
2020/12/24 08:46:19;;;;;;;1.23;0.80;;;10.70;99.90;;;;;;5127725;27;20200;-81
2020/12/24 08:48:46;;;;;;;1.00;0.70;;;10.80;99.90;;;;;;5124632;27;20194;-81
2020/12/24 08:51:13;;;;;;;0.85;0.70;;;10.80;99.90;;;;;;5125905;27;20197;-78
2020/12/24 08:53:39;;;;;;;1.10;0.80;;;10.80;99.90;;;;;;5118150;27;20241;-82
2020/12/24 08:56:11;;;;;;;1.02;0.82;;;10.80;99.90;;;;;;5135439;27;20196;-82
2020/12/24 08:58:51;;;;;;;0.90;0.70;;;10.80;99.90;;;;;;5116184;27;20208;-84
2020/12/24 09:01:18;;;;;;;1.13;0.90;;;10.70;99.90;;;;;;5114683;27;20191;-80
2020/12/24 09:03:45;;;;;;;1.23;0.90;;;10.80;99.90;;;;;;5117542;27;20196;-81
2020/12/24 09:06:12;;;;;;;2.17;1.20;;;10.70;99.90;;;;;;5128359;27;20189;-79
2020/12/24 09:08:40;;;;;;;1.00;0.80;;;10.70;99.90;;;;;;5125102;27;20204;-81
2020/12/24 09:11:07;;;;;;;1.10;0.88;;;10.70;99.90;;;;;;5122850;27;20204;-82
2020/12/24 09:13:33;;;;;;;1.00;0.70;;;10.70;99.90;;;;;;5114808;27;20253;-80
2020/12/24 09:16:10;;;;;;;0.98;0.77;;;10.70;99.90;;;;;;5138239;27;20246;-81
2020/12/24 09:18:36;;;;;;;1.20;0.90;;;10.70;99.90;;;;;;5140956;27;20187;-81
2020/12/24 09:21:10;;;;;;;1.35;1.10;;;10.70;99.90;;;;;;5123660;27;20193;-80
2020/12/24 09:23:36;;;;;;;2.50;0.90;;;10.70;99.90;;;;;;5113941;28;20185;-81
2020/12/24 09:26:03;;;;;;;1.20;0.90;;;10.70;99.90;;;;;;5113779;27;20207;-81
2020/12/24 09:28:30;;;;;;;1.10;1.00;;;10.60;99.90;;;;;;5113983;28;20197;-81
2020/12/24 09:30:58;;;;;;;1.30;1.02;;;10.60;99.90;;;;;;5115184;27;20197;-81
2020/12/24 09:33:25;;;;;;;1.25;1.15;;;10.70;99.90;;;;;;5113757;28;20196;-82
2020/12/24 09:35:52;;;;;;;3.13;1.40;;;10.60;99.90;;;;;;5113760;28;20680;-82
2020/12/24 09:38:18;;;;;;;1.42;1.00;;;10.60;99.90;;;;;;5113332;28;20633;-84
2020/12/24 09:40:45;;;;;;;1.00;0.82;;;10.50;99.90;;;;;;5126327;27;20238;-82
2020/12/24 09:43:11;;;;;;;1.30;1.20;;;10.50;99.90;;;;;;5127335;27;20552;-82
2020/12/24 09:45:38;;;;;;;1.95;1.20;;;10.60;99.90;;;;;;5113598;27;20201;-84
2020/12/24 09:48:05;;;;;;;1.30;1.20;;;10.50;99.90;;;;;;5117555;27;20212;-83
2020/12/24 09:50:34;;;;;;;2.10;1.60;;;10.50;99.90;;;;;;5124478;27;20721;-82
2020/12/24 09:53:01;;;;;;;1.30;1.00;;;10.50;99.90;;;;;;5113540;27;20257;-82
2020/12/24 09:55:27;;;;;;;1.23;1.00;;;10.50;99.90;;;;;;5119605;27;20220;-81
2020/12/24 09:57:53;;;;;;;2.10;1.08;;;10.50;99.90;;;;;;5128103;27;20658;-82
2020/12/24 10:00:19;;;;;;;1.13;1.02;;;10.50;99.90;;;;;;5124189;27;20675;-82
2020/12/24 10:02:45;;;;;;;1.40;1.17;;;10.50;99.90;;;;;;5114380;27;20536;-82
2020/12/24 10:05:12;;;;;;;1.02;0.90;;;10.50;99.90;;;;;;5120334;27;20196;-81
2020/12/24 10:07:39;;;;;;;1.23;1.13;;;10.50;99.90;;;;;;5116111;27;20266;-82
2020/12/24 10:10:05;;;;;;;1.33;1.00;;;10.50;99.90;;;;;;5116849;27;20257;-83
2020/12/24 10:12:31;;;;;;;1.20;1.10;;;10.50;99.90;;;;;;5128907;27;20527;-82
2020/12/24 10:14:58;;;;;;;1.48;1.00;;;10.40;99.90;;;;;;5117618;27;20757;-82
2020/12/24 10:17:25;;;;;;;0.93;0.80;;;10.40;99.90;;;;;;5126535;27;20193;-83
2020/12/24 10:19:53;;;;;;;1.00;0.70;;;10.40;99.90;;;;;;5116794;27;20211;-82
2020/12/24 10:22:19;;;;;;;1.10;0.90;;;10.40;99.90;;;;;;5113296;28;20193;-83
2020/12/24 10:24:46;;;;;;;2.50;1.17;;;10.30;99.90;;;;;;5123398;27;20573;-82
2020/12/24 10:27:13;;;;;;;1.10;0.90;;;10.30;99.90;;;;;;5118938;27;20223;-83
2020/12/24 10:29:40;;;;;;;1.50;1.30;;;10.30;99.90;;;;;;5130247;27;20207;-82
2020/12/24 10:32:06;;;;;;;1.25;1.05;;;10.30;99.90;;;;;;5127579;27;20200;-76
2020/12/24 10:34:32;;;;;;;0.90;0.80;;;10.30;99.90;;;;;;5125957;27;20197;-80
2020/12/24 10:37:00;;;;;;;1.42;1.15;;;10.30;99.90;;;;;;5122270;27;20190;-80
2020/12/24 10:39:27;;;;;;;1.75;1.02;;;10.30;99.90;;;;;;5112799;28;20228;-80
2020/12/24 10:41:54;;;;;;;1.00;0.90;;;10.30;99.90;;;;;;5119211;27;20584;-81
2020/12/24 10:44:20;;;;;;;1.30;1.20;;;10.30;99.90;;;;;;5112401;28;20193;-80
2020/12/24 10:46:47;;;;;;;2.08;1.10;;;10.30;99.90;;;;;;5112340;28;20212;-80
2020/12/24 10:49:13;;;;;;;1.25;1.13;;;10.20;99.90;;;;;;5112484;28;20205;-82
2020/12/24 10:51:39;;;;;;;1.00;0.90;;;10.20;99.90;;;;;;5113200;28;20632;-79
2020/12/24 10:54:06;;;;;;;3.63;1.00;;;10.20;99.90;;;;;;5130119;27;20196;-80
2020/12/24 10:56:32;;;;;;;1.85;1.00;;;10.20;99.90;;;;;;5123857;27;20192;-80
2020/12/24 10:59:00;;;;;;;1.05;0.80;;;10.20;99.90;;;;;;5116572;27;20230;-81
2020/12/24 11:01:26;;;;;;;1.75;1.25;;;10.20;99.90;;;;;;5112152;28;20189;-81
2020/12/24 11:03:52;;;;;;;1.20;1.05;;;10.20;99.90;;;;;;5112211;28;20700;-81
2020/12/24 11:06:20;;;;;;;1.10;0.90;;;10.20;99.90;;;;;;5111970;28;20659;-81
2020/12/24 11:08:48;;;;;;;1.42;1.02;;;10.20;99.90;;;;;;5112942;28;20195;-80
2020/12/24 11:11:14;;;;;;;2.03;1.67;;;10.20;99.90;;;;;;5121000;28;20192;-80
2020/12/24 11:13:41;;;;;;;1.30;1.00;;;10.20;99.90;;;;;;5132055;27;20198;-80
2020/12/24 11:16:08;;;;;;;1.00;0.90;;;10.20;99.90;;;;;;5131467;27;20199;-81
2020/12/24 11:18:37;;;;;;;1.23;1.13;;;10.20;99.90;;;;;;5126162;27;20196;-80
2020/12/24 11:21:04;;;;;;;1.35;1.20;;;10.20;99.90;;;;;;5113381;28;20193;-80
2020/12/24 11:23:30;;;;;;;1.20;1.10;;;10.20;99.90;;;;;;5112892;28;20242;-80
2020/12/24 11:25:56;;;;;;;1.35;1.25;;;10.20;99.90;;;;;;5112350;27;20196;-80
2020/12/24 11:28:23;;;;;;;1.30;1.00;;;10.20;99.90;;;;;;5113092;28;20217;-79
2020/12/24 11:30:49;;;;;;;1.70;1.27;;;10.10;99.90;;;;;;5130831;27;20252;-78
2020/12/24 11:33:16;;;;;;;1.60;1.20;;;10.20;99.90;;;;;;5130935;27;20199;-81
2020/12/24 11:35:43;;;;;;;1.20;1.10;;;10.20;99.90;;;;;;5132209;27;20579;-78
2020/12/24 11:38:09;;;;;;;1.50;1.30;;;10.10;99.90;;;;;;5116896;27;20196;-81
2020/12/24 11:40:35;;;;;;;1.50;1.40;;;10.20;99.90;;;;;;5123406;27;20228;-82
2020/12/24 11:43:01;;;;;;;1.10;0.93;;;10.10;99.90;;;;;;5123835;27;20204;-82
2020/12/24 11:45:28;;;;;;;1.23;1.05;;;10.10;99.90;;;;;;5133016;27;20253;-81
2020/12/24 11:47:54;;;;;;;1.48;1.35;;;10.10;99.90;;;;;;5133628;27;20578;-82
2020/12/24 11:50:22;;;;;;;2.00;1.20;;;10.10;99.90;;;;;;5116179;27;20586;-82
2020/12/24 11:52:48;;;;;;;1.30;1.10;;;10.10;99.90;;;;;;5117089;27;20200;-81
2020/12/24 11:55:14;;;;;;;2.00;1.40;;;10.20;99.90;;;;;;5122324;27;20886;-81
2020/12/24 11:57:40;;;;;;;1.98;1.60;;;10.10;99.90;;;;;;5128321;27;20643;-73
2020/12/24 12:00:08;;;;;;;1.83;1.13;;;10.20;99.90;;;;;;5136278;27;20200;-81
2020/12/24 12:02:34;;;;;;;3.25;1.30;;;10.10;99.90;;;;;;5123035;27;20212;-82
2020/12/24 12:05:01;;;;;;;1.15;1.05;;;10.10;99.90;;;;;;5116087;27;20246;-80
2020/12/24 12:07:28;;;;;;;2.80;1.42;;;10.10;99.90;;;;;;5116064;27;20208;-83
2020/12/24 12:09:54;;;;;;;1.52;1.30;;;10.10;99.90;;;;;;5124330;27;20218;-76
2020/12/24 12:12:20;;;;;;;2.17;1.50;;;10.10;99.90;;;;;;5133801;27;20196;-81
2020/12/24 12:14:47;;;;;;;1.27;1.17;;;10.10;99.90;;;;;;5115173;27;20537;-79
2020/12/24 12:17:14;;;;;;;2.85;1.65;;;10.10;99.90;;;;;;5116169;27;20640;-79
2020/12/24 12:19:43;;;;;;;1.50;1.40;;;10.10;99.90;;;;;;5113792;27;20624;-74
2020/12/24 12:22:10;;;;;;;3.47;1.55;;;10.00;99.90;;;;;;5118558;27;20192;-78
2020/12/24 12:24:37;;;;;;;1.55;1.45;;;10.00;99.90;;;;;;5119434;27;20524;-77
2020/12/24 12:27:04;;;;;;;1.75;1.42;;;10.00;99.90;;;;;;5126848;27;20312;-77
2020/12/24 12:29:30;;;;;;;2.00;1.80;;;10.10;99.90;;;;;;5122889;27;20196;-77
2020/12/24 12:31:56;;;;;;;2.08;1.88;;;10.00;99.90;;;;;;5135600;27;20200;-78
2020/12/24 12:34:22;;;;;;;2.10;1.77;;;10.10;99.90;;;;;;5132220;27;20283;-77
2020/12/24 12:36:49;;;;;;;1.60;1.50;;;10.00;99.90;;;;;;5123926;27;20643;-79
2020/12/24 12:39:18;;;;;;;1.50;1.40;;;10.10;99.90;;;;;;5129548;27;20195;-78
2020/12/24 12:41:46;;;;;;;1.40;1.30;;;10.00;99.90;;;;;;5122793;27;20192;-79
2020/12/24 12:44:12;;;;;;;1.90;1.80;;;10.00;99.90;;;;;;5115065;27;20197;-80
2020/12/24 12:46:39;;;;;;;3.22;2.05;;;10.10;99.90;;;;;;5114746;27;20193;-77
2020/12/24 12:49:05;;;;;;;1.88;1.63;;;10.10;99.90;;;;;;5121768;27;20288;-77